sensor_id;sensor_type;location;lat;lon;timestamp;pressure;altitude;pressure_sealevel;temperature;humidity
77867;BME280;67271;59.120;37.970;2023-11-19T00:04:15;100896.91;;;-7.58;80.46
77867;BME280;67271;59.120;37.970;2023-11-19T00:06:40;100902.31;;;-7.61;80.45
77867;BME280;67271;59.120;37.970;2023-11-19T00:09:06;100895.34;;;-7.62;80.84
77867;BME280;67271;59.120;37.970;2023-11-19T00:11:33;100894.59;;;-7.66;80.96
77867;BME280;67271;59.120;37.970;2023-11-19T00:13:59;100897.91;;;-7.61;80.90
77867;BME280;67271;59.120;37.970;2023-11-19T00:16:25;100888.41;;;-7.65;80.67
77867;BME280;67271;59.120;37.970;2023-11-19T00:18:51;100889.59;;;-7.72;80.61
77867;BME280;67271;59.120;37.970;2023-11-19T00:21:17;100896.69;;;-7.74;80.64
77867;BME280;67271;59.120;37.970;2023-11-19T00:23:42;100884.34;;;-7.72;80.74
77867;BME280;67271;59.120;37.970;2023-11-19T00:26:08;100894.69;;;-7.67;80.89
77867;BME280;67271;59.120;37.970;2023-11-19T00:28:36;100883.91;;;-7.61;80.71
77867;BME280;67271;59.120;37.970;2023-11-19T00:31:04;100890.78;;;-7.59;80.73
77867;BME280;67271;59.120;37.970;2023-11-19T00:33:30;100888.03;;;-7.56;80.85
77867;BME280;67271;59.120;37.970;2023-11-19T00:35:56;100888.56;;;-7.48;80.97
77867;BME280;67271;59.120;37.970;2023-11-19T00:38:22;100878.97;;;-7.49;80.65
77867;BME280;67271;59.120;37.970;2023-11-19T00:40:48;100875.72;;;-7.54;80.78
77867;BME280;67271;59.120;37.970;2023-11-19T00:43:14;100873.34;;;-7.60;81.10
77867;BME280;67271;59.120;37.970;2023-11-19T00:45:40;100873.47;;;-7.63;80.86
77867;BME280;67271;59.120;37.970;2023-11-19T00:48:06;100873.47;;;-7.63;81.05
77867;BME280;67271;59.120;37.970;2023-11-19T00:50:33;100880.22;;;-7.57;80.90
77867;BME280;67271;59.120;37.970;2023-11-19T00:52:58;100885.41;;;-7.56;80.96
77867;BME280;67271;59.120;37.970;2023-11-19T00:55:24;100881.72;;;-7.52;80.95
77867;BME280;67271;59.120;37.970;2023-11-19T00:57:50;100876.94;;;-7.42;80.95
77867;BME280;67271;59.120;37.970;2023-11-19T01:00:16;100875.81;;;-7.36;80.84
77867;BME280;67271;59.120;37.970;2023-11-19T01:02:45;100865.25;;;-7.35;80.85
77867;BME280;67271;59.120;37.970;2023-11-19T01:05:11;100874.25;;;-7.40;80.85
77867;BME280;67271;59.120;37.970;2023-11-19T01:07:39;100872.75;;;-7.46;80.95
77867;BME280;67271;59.120;37.970;2023-11-19T01:10:06;100869.31;;;-7.48;80.82
77867;BME280;67271;59.120;37.970;2023-11-19T01:12:34;100871.38;;;-7.55;80.90
77867;BME280;67271;59.120;37.970;2023-11-19T01:14:59;100873.19;;;-7.57;81.00
77867;BME280;67271;59.120;37.970;2023-11-19T01:17:27;100871.38;;;-7.55;80.88
77867;BME280;67271;59.120;37.970;2023-11-19T01:19:53;100864.28;;;-7.53;80.81
77867;BME280;67271;59.120;37.970;2023-11-19T01:22:20;100857.16;;;-7.51;80.77
77867;BME280;67271;59.120;37.970;2023-11-19T01:24:45;100855.38;;;-7.50;80.71
77867;BME280;67271;59.120;37.970;2023-11-19T01:27:12;100854.53;;;-7.51;80.87
77867;BME280;67271;59.120;37.970;2023-11-19T01:29:38;100855.38;;;-7.50;80.84
77867;BME280;67271;59.120;37.970;2023-11-19T01:32:06;100859.72;;;-7.49;80.70
77867;BME280;67271;59.120;37.970;2023-11-19T01:34:31;100845.69;;;-7.48;80.69
77867;BME280;67271;59.120;37.970;2023-11-19T01:36:57;100837.72;;;-7.47;80.68
77867;BME280;67271;59.120;37.970;2023-11-19T01:39:23;100833.28;;;-7.45;80.95
77867;BME280;67271;59.120;37.970;2023-11-19T01:41:49;100836.41;;;-7.36;80.97
77867;BME280;67271;59.120;37.970;2023-11-19T01:44:15;100831.81;;;-7.31;80.85
77867;BME280;67271;59.120;37.970;2023-11-19T01:46:44;100833.66;;;-7.33;80.88
77867;BME280;67271;59.120;37.970;2023-11-19T01:49:14;100825.97;;;-7.38;80.85
77867;BME280;67271;59.120;37.970;2023-11-19T01:51:41;100819.13;;;-7.42;80.95
77867;BME280;67271;59.120;37.970;2023-11-19T01:54:07;100824.38;;;-7.42;80.95
77867;BME280;67271;59.120;37.970;2023-11-19T01:56:35;100827.06;;;-7.44;80.81
77867;BME280;67271;59.120;37.970;2023-11-19T01:59:02;100833.19;;;-7.43;80.71
77867;BME280;67271;59.120;37.970;2023-11-19T02:01:29;100835.28;;;-7.51;80.81
77867;BME280;67271;59.120;37.970;2023-11-19T02:03:55;100835.44;;;-7.54;80.92
77867;BME280;67271;59.120;37.970;2023-11-19T02:06:21;100834.44;;;-7.52;80.84
77867;BME280;67271;59.120;37.970;2023-11-19T02:08:47;100828.25;;;-7.51;80.82
77867;BME280;67271;59.120;37.970;2023-11-19T02:11:13;100835.09;;;-7.47;80.96
77867;BME280;67271;59.120;37.970;2023-11-19T02:13:40;100831.56;;;-7.46;80.84
77867;BME280;67271;59.120;37.970;2023-11-19T02:16:07;100834.31;;;-7.49;80.71
77867;BME280;67271;59.120;37.970;2023-11-19T02:18:35;100820.38;;;-7.51;81.01
77867;BME280;67271;59.120;37.970;2023-11-19T02:21:00;100825.72;;;-7.52;80.80
77867;BME280;67271;59.120;37.970;2023-11-19T02:23:27;100824.88;;;-7.53;81.03
77867;BME280;67271;59.120;37.970;2023-11-19T02:26:17;100821.38;;;-7.53;80.66
77867;BME280;67271;59.120;37.970;2023-11-19T02:28:44;100816.19;;;-7.55;80.67
77867;BME280;67271;59.120;37.970;2023-11-19T02:31:10;100811.19;;;-7.61;80.50
77867;BME280;67271;59.120;37.970;2023-11-19T02:33:37;100812.13;;;-7.62;80.64
77867;BME280;67271;59.120;37.970;2023-11-19T02:36:04;100808.41;;;-7.58;80.63
77867;BME280;67271;59.120;37.970;2023-11-19T02:38:30;100808.25;;;-7.53;80.55
77867;BME280;67271;59.120;37.970;2023-11-19T02:40:57;100805.66;;;-7.55;80.51
77867;BME280;67271;59.120;37.970;2023-11-19T02:43:23;100813.56;;;-7.55;80.38
77867;BME280;67271;59.120;37.970;2023-11-19T02:45:48;100802.06;;;-7.52;80.22
77867;BME280;67271;59.120;37.970;2023-11-19T02:48:14;100800.19;;;-7.50;80.54
77867;BME280;67271;59.120;37.970;2023-11-19T02:50:44;100809.00;;;-7.51;80.54
77867;BME280;67271;59.120;37.970;2023-11-19T02:53:11;100801.22;;;-7.53;80.42
77867;BME280;67271;59.120;37.970;2023-11-19T02:55:38;100799.56;;;-7.55;80.42
77867;BME280;67271;59.120;37.970;2023-11-19T02:58:06;100802.06;;;-7.52;80.53
77867;BME280;67271;59.120;37.970;2023-11-19T03:00:45;100797.41;;;-7.46;80.50
77867;BME280;67271;59.120;37.970;2023-11-19T03:03:20;100796.38;;;-7.43;80.18
77867;BME280;67271;59.120;37.970;2023-11-19T03:05:48;100790.16;;;-7.40;80.48
77867;BME280;67271;59.120;37.970;2023-11-19T03:08:15;100787.41;;;-7.37;80.27
77867;BME280;67271;59.120;37.970;2023-11-19T03:10:41;100786.66;;;-7.41;80.46
77867;BME280;67271;59.120;37.970;2023-11-19T03:13:11;100788.44;;;-7.42;80.48
77867;BME280;67271;59.120;37.970;2023-11-19T03:15:40;100787.41;;;-7.37;80.59
77867;BME280;67271;59.120;37.970;2023-11-19T03:18:06;100785.53;;;-7.35;80.04
77867;BME280;67271;59.120;37.970;2023-11-19T03:20:31;100789.88;;;-7.34;80.21
77867;BME280;67271;59.120;37.970;2023-11-19T03:22:57;100789.03;;;-7.35;80.48
77867;BME280;67271;59.120;37.970;2023-11-19T03:25:26;100773.06;;;-7.30;80.39
77867;BME280;67271;59.120;37.970;2023-11-19T03:28:00;100772.91;;;-7.27;80.20
77867;BME280;67271;59.120;37.970;2023-11-19T03:30:27;100772.97;;;-7.29;80.19
77867;BME280;67271;59.120;37.970;2023-11-19T03:32:57;100779.34;;;-7.34;80.22
77867;BME280;67271;59.120;37.970;2023-11-19T03:35:24;100772.66;;;-7.42;80.13
77867;BME280;67271;59.120;37.970;2023-11-19T03:37:50;100767.41;;;-7.42;80.30
77867;BME280;67271;59.120;37.970;2023-11-19T03:40:17;100759.47;;;-7.40;80.18
77867;BME280;67271;59.120;37.970;2023-11-19T03:42:47;100763.00;;;-7.41;80.21
77867;BME280;67271;59.120;37.970;2023-11-19T03:45:13;100761.97;;;-7.37;80.27
77867;BME280;67271;59.120;37.970;2023-11-19T03:47:39;100761.88;;;-7.35;79.98
77867;BME280;67271;59.120;37.970;2023-11-19T03:50:06;100763.59;;;-7.34;80.19
77867;BME280;67271;59.120;37.970;2023-11-19T03:52:33;100758.50;;;-7.37;80.16
77867;BME280;67271;59.120;37.970;2023-11-19T03:54:59;100752.16;;;-7.33;80.24
77867;BME280;67271;59.120;37.970;2023-11-19T03:57:27;100752.09;;;-7.32;80.02
77867;BME280;67271;59.120;37.970;2023-11-19T03:59:53;100750.09;;;-7.27;80.34
77867;BME280;67271;59.120;37.970;2023-11-19T04:02:21;100739.66;;;-7.28;80.13
77867;BME280;67271;59.120;37.970;2023-11-19T04:04:46;100750.09;;;-7.27;80.11
77867;BME280;67271;59.120;37.970;2023-11-19T04:07:13;100745.56;;;-7.23;80.20
77867;BME280;67271;59.120;37.970;2023-11-19T04:09:39;100744.56;;;-7.21;79.97
77867;BME280;67271;59.120;37.970;2023-11-19T04:12:05;100742.03;;;-7.22;79.92
77867;BME280;67271;59.120;37.970;2023-11-19T04:14:32;100748.91;;;-7.20;80.00
77867;BME280;67271;59.120;37.970;2023-11-19T04:16:58;100747.91;;;-7.17;79.86
77867;BME280;67271;59.120;37.970;2023-11-19T04:19:24;100736.47;;;-7.16;79.85
77867;BME280;67271;59.120;37.970;2023-11-19T04:21:50;100738.31;;;-7.18;79.52
77867;BME280;67271;59.120;37.970;2023-11-19T04:24:17;100740.31;;;-7.23;79.70
77867;BME280;67271;59.120;37.970;2023-11-19T04:26:43;100735.06;;;-7.23;79.85
77867;BME280;67271;59.120;37.970;2023-11-19T04:29:14;100744.84;;;-7.27;79.73
77867;BME280;67271;59.120;37.970;2023-11-19T04:31:41;100739.75;;;-7.30;80.07
77867;BME280;67271;59.120;37.970;2023-11-19T04:34:07;100737.25;;;-7.33;79.52
77867;BME280;67271;59.120;37.970;2023-11-19T04:36:33;100735.41;;;-7.31;79.88
77867;BME280;67271;59.120;37.970;2023-11-19T04:39:00;100724.72;;;-7.28;80.00
77867;BME280;67271;59.120;37.970;2023-11-19T04:41:26;100728.09;;;-7.24;79.73
77867;BME280;67271;59.120;37.970;2023-11-19T04:43:55;100721.00;;;-7.22;79.72
77867;BME280;67271;59.120;37.970;2023-11-19T04:46:21;100725.25;;;-7.20;79.84
77867;BME280;67271;59.120;37.970;2023-11-19T04:48:49;100712.03;;;-7.18;79.74
77867;BME280;67271;59.120;37.970;2023-11-19T04:51:15;100718.22;;;-7.19;79.70
77867;BME280;67271;59.120;37.970;2023-11-19T04:53:42;100708.84;;;-7.25;79.77
77867;BME280;67271;59.120;37.970;2023-11-19T04:56:09;100716.84;;;-7.28;79.68
77867;BME280;67271;59.120;37.970;2023-11-19T04:58:35;100719.56;;;-7.29;79.53
77867;BME280;67271;59.120;37.970;2023-11-19T05:01:05;100715.00;;;-7.26;79.82
77867;BME280;67271;59.120;37.970;2023-11-19T05:03:31;100718.13;;;-7.18;79.63
77867;BME280;67271;59.120;37.970;2023-11-19T05:05:58;100718.00;;;-7.15;79.70
77867;BME280;67271;59.120;37.970;2023-11-19T05:08:23;100716.72;;;-7.06;79.52
77867;BME280;67271;59.120;37.970;2023-11-19T05:10:49;100719.44;;;-7.08;79.58
77867;BME280;67271;59.120;37.970;2023-11-19T05:13:15;100720.47;;;-7.12;79.65
77867;BME280;67271;59.120;37.970;2023-11-19T05:15:42;100727.56;;;-7.14;79.67
77867;BME280;67271;59.120;37.970;2023-11-19T05:18:08;100719.63;;;-7.12;79.62
77867;BME280;67271;59.120;37.970;2023-11-19T05:20:34;100720.72;;;-7.16;80.14
77867;BME280;67271;59.120;37.970;2023-11-19T05:23:00;100724.94;;;-7.14;79.82
77867;BME280;67271;59.120;37.970;2023-11-19T05:25:26;100724.03;;;-7.13;80.08
77867;BME280;67271;59.120;37.970;2023-11-19T05:27:53;100729.09;;;-7.08;79.99
77867;BME280;67271;59.120;37.970;2023-11-19T05:30:19;100722.75;;;-7.04;79.95
77867;BME280;67271;59.120;37.970;2023-11-19T05:32:45;100723.84;;;-7.08;79.52
77867;BME280;67271;59.120;37.970;2023-11-19T05:35:11;100723.84;;;-7.08;79.42
77867;BME280;67271;59.120;37.970;2023-11-19T05:37:37;100729.09;;;-7.08;79.44
77867;BME280;67271;59.120;37.970;2023-11-19T05:40:04;100731.78;;;-7.10;79.64
77867;BME280;67271;59.120;37.970;2023-11-19T05:42:34;100726.38;;;-7.07;79.57
77867;BME280;67271;59.120;37.970;2023-11-19T05:45:00;100734.84;;;-7.00;79.65
77867;BME280;67271;59.120;37.970;2023-11-19T05:47:26;100740.38;;;-7.06;79.37
77867;BME280;67271;59.120;37.970;2023-11-19T05:49:52;100737.75;;;-7.06;79.43
77867;BME280;67271;59.120;37.970;2023-11-19T05:52:18;100739.50;;;-7.07;79.30
77867;BME280;67271;59.120;37.970;2023-11-19T05:54:43;100737.63;;;-7.03;79.32
77867;BME280;67271;59.120;37.970;2023-11-19T05:57:09;100741.44;;;-6.91;79.06
77867;BME280;67271;59.120;37.970;2023-11-19T05:59:36;100737.69;;;-6.86;79.01
77867;BME280;67271;59.120;37.970;2023-11-19T06:02:02;100744.66;;;-6.85;79.24
77867;BME280;67271;59.120;37.970;2023-11-19T06:04:30;100737.75;;;-6.87;78.98
77867;BME280;67271;59.120;37.970;2023-11-19T06:06:55;100741.25;;;-6.87;79.18
77867;BME280;67271;59.120;37.970;2023-11-19T06:09:21;100733.47;;;-6.90;79.50
77867;BME280;67271;59.120;37.970;2023-11-19T06:11:51;100736.09;;;-6.90;79.15
77867;BME280;67271;59.120;37.970;2023-11-19T06:14:18;100737.19;;;-6.94;79.11
77867;BME280;67271;59.120;37.970;2023-11-19T06:16:44;100737.03;;;-6.91;78.93
77867;BME280;67271;59.120;37.970;2023-11-19T06:19:10;100746.34;;;-6.84;78.84
77867;BME280;67271;59.120;37.970;2023-11-19T06:21:37;100752.38;;;-6.82;78.97
77867;BME280;67271;59.120;37.970;2023-11-19T06:24:03;100744.50;;;-6.82;78.92
77867;BME280;67271;59.120;37.970;2023-11-19T06:26:29;100747.91;;;-6.80;78.92
77867;BME280;67271;59.120;37.970;2023-11-19T06:28:55;100760.78;;;-6.74;78.96
77867;BME280;67271;59.120;37.970;2023-11-19T06:31:21;100754.81;;;-6.77;78.75
77867;BME280;67271;59.120;37.970;2023-11-19T06:33:47;100750.25;;;-6.74;78.72
77867;BME280;67271;59.120;37.970;2023-11-19T06:36:16;100752.75;;;-6.71;78.86
77867;BME280;67271;59.120;37.970;2023-11-19T06:38:43;100758.56;;;-6.64;78.92
77867;BME280;67271;59.120;37.970;2023-11-19T06:41:09;100756.63;;;-6.60;78.83
77867;BME280;67271;59.120;37.970;2023-11-19T06:43:36;100752.78;;;-6.53;78.66
77867;BME280;67271;59.120;37.970;2023-11-19T06:46:02;100758.47;;;-6.44;78.70
77867;BME280;67271;59.120;37.970;2023-11-19T06:48:32;100755.31;;;-6.33;78.60
77867;BME280;67271;59.120;37.970;2023-11-19T06:50:58;100749.25;;;-6.35;78.45
77867;BME280;67271;59.120;37.970;2023-11-19T06:53:24;100758.25;;;-6.39;78.70
77867;BME280;67271;59.120;37.970;2023-11-19T06:55:50;100760.41;;;-6.30;78.41
77867;BME280;67271;59.120;37.970;2023-11-19T06:58:16;100762.78;;;-6.24;78.34
77867;BME280;67271;59.120;37.970;2023-11-19T07:00:43;100761.53;;;-6.17;78.14
77867;BME280;67271;59.120;37.970;2023-11-19T07:03:10;100770.91;;;-6.11;78.30
77867;BME280;67271;59.120;37.970;2023-11-19T07:05:36;100774.09;;;-6.05;78.30
77867;BME280;67271;59.120;37.970;2023-11-19T07:08:05;100773.31;;;-6.07;78.29
77867;BME280;67271;59.120;37.970;2023-11-19T07:10:32;100774.16;;;-6.06;78.48
77867;BME280;67271;59.120;37.970;2023-11-19T07:12:59;100770.38;;;-6.18;78.48
77867;BME280;67271;59.120;37.970;2023-11-19T07:15:25;100774.97;;;-6.23;78.39
77867;BME280;67271;59.120;37.970;2023-11-19T07:17:51;100782.34;;;-6.30;78.35
77867;BME280;67271;59.120;37.970;2023-11-19T07:20:20;100777.38;;;-6.36;78.26
77867;BME280;67271;59.120;37.970;2023-11-19T07:22:45;100779.94;;;-6.34;78.22
77867;BME280;67271;59.120;37.970;2023-11-19T07:25:14;100772.66;;;-6.29;78.26
77867;BME280;67271;59.120;37.970;2023-11-19T07:27:40;100773.44;;;-6.27;77.98
77867;BME280;67271;59.120;37.970;2023-11-19T07:30:07;100778.56;;;-6.24;78.02
77867;BME280;67271;59.120;37.970;2023-11-19T07:32:33;100774.06;;;-6.22;77.73
77867;BME280;67271;59.120;37.970;2023-11-19T07:34:59;100777.34;;;-6.17;77.75
77867;BME280;67271;59.120;37.970;2023-11-19T07:37:25;100770.91;;;-6.11;78.00
77867;BME280;67271;59.120;37.970;2023-11-19T07:39:51;100764.78;;;-6.12;77.69
77867;BME280;67271;59.120;37.970;2023-11-19T07:42:17;100771.53;;;-6.06;77.73
77867;BME280;67271;59.120;37.970;2023-11-19T07:44:43;100773.16;;;-6.04;77.86
77867;BME280;67271;59.120;37.970;2023-11-19T07:47:09;100777.66;;;-6.06;77.60
77867;BME280;67271;59.120;37.970;2023-11-19T07:49:35;100781.38;;;-6.10;77.12
77867;BME280;67271;59.120;37.970;2023-11-19T07:52:01;100787.41;;;-6.08;77.38
77867;BME280;67271;59.120;37.970;2023-11-19T07:54:28;100786.53;;;-6.08;77.15
77867;BME280;67271;59.120;37.970;2023-11-19T07:56:54;100783.53;;;-6.01;76.74
77867;BME280;67271;59.120;37.970;2023-11-19T07:59:21;100794.31;;;-5.88;77.07
77867;BME280;67271;59.120;37.970;2023-11-19T08:01:47;100789.19;;;-5.91;76.71
77867;BME280;67271;59.120;37.970;2023-11-19T08:04:13;100786.31;;;-5.87;76.70
77867;BME280;67271;59.120;37.970;2023-11-19T08:06:39;100783.78;;;-5.88;76.47
77867;BME280;67271;59.120;37.970;2023-11-19T08:09:05;100784.66;;;-5.88;76.53
77867;BME280;67271;59.120;37.970;2023-11-19T08:11:32;100787.72;;;-5.79;76.49
77867;BME280;67271;59.120;37.970;2023-11-19T08:13:59;100776.41;;;-5.64;76.40
77867;BME280;67271;59.120;37.970;2023-11-19T08:16:25;100776.69;;;-5.53;76.33
77867;BME280;67271;59.120;37.970;2023-11-19T08:18:51;100776.53;;;-5.50;76.17
77867;BME280;67271;59.120;37.970;2023-11-19T08:21:17;100768.13;;;-5.41;76.19
77867;BME280;67271;59.120;37.970;2023-11-19T08:23:42;100763.63;;;-5.39;76.05
77867;BME280;67271;59.120;37.970;2023-11-19T08:26:08;100762.03;;;-5.41;76.33
77867;BME280;67271;59.120;37.970;2023-11-19T08:28:35;100763.34;;;-5.50;76.20
77867;BME280;67271;59.120;37.970;2023-11-19T08:31:01;100763.16;;;-5.47;75.99
77867;BME280;67271;59.120;37.970;2023-11-19T08:33:27;100766.06;;;-5.52;76.10
77867;BME280;67271;59.120;37.970;2023-11-19T08:35:53;100756.06;;;-5.62;75.98
77867;BME280;67271;59.120;37.970;2023-11-19T08:38:19;100760.97;;;-5.72;76.25
77867;BME280;67271;59.120;37.970;2023-11-19T08:40:45;100752.22;;;-5.72;76.12
77867;BME280;67271;59.120;37.970;2023-11-19T08:43:10;100753.34;;;-5.78;76.16
77867;BME280;67271;59.120;37.970;2023-11-19T08:45:36;100748.78;;;-5.74;76.06
77867;BME280;67271;59.120;37.970;2023-11-19T08:48:02;100749.56;;;-5.72;75.93
77867;BME280;67271;59.120;37.970;2023-11-19T08:50:28;100755.13;;;-5.61;75.82
77867;BME280;67271;59.120;37.970;2023-11-19T08:52:54;100750.91;;;-5.48;75.70
77867;BME280;67271;59.120;37.970;2023-11-19T08:55:20;100744.97;;;-5.52;75.39
77867;BME280;67271;59.120;37.970;2023-11-19T08:57:46;100742.84;;;-5.45;75.32
77867;BME280;67271;59.120;37.970;2023-11-19T09:00:12;100745.19;;;-5.23;75.38
77867;BME280;67271;59.120;37.970;2023-11-19T09:02:40;100742.75;;;-5.11;75.20
77867;BME280;67271;59.120;37.970;2023-11-19T09:05:06;100740.66;;;-5.04;74.67
77867;BME280;67271;59.120;37.970;2023-11-19T09:07:34;100746.44;;;-4.97;74.76
77867;BME280;67271;59.120;37.970;2023-11-19T09:10:01;100744.81;;;-5.00;74.89
77867;BME280;67271;59.120;37.970;2023-11-19T09:12:27;100745.53;;;-4.96;74.75
77867;BME280;67271;59.120;37.970;2023-11-19T09:14:53;100738.28;;;-4.77;74.59
77867;BME280;67271;59.120;37.970;2023-11-19T09:17:19;100741.34;;;-4.69;74.28
77867;BME280;67271;59.120;37.970;2023-11-19T09:19:44;100738.44;;;-4.64;74.36
77867;BME280;67271;59.120;37.970;2023-11-19T09:22:11;100743.63;;;-4.63;74.21
77867;BME280;67271;59.120;37.970;2023-11-19T09:24:37;100743.72;;;-4.64;74.42
77867;BME280;67271;59.120;37.970;2023-11-19T09:27:03;100741.16;;;-4.50;74.28
77867;BME280;67271;59.120;37.970;2023-11-19T09:29:31;100739.63;;;-4.39;74.28
77867;BME280;67271;59.120;37.970;2023-11-19T09:31:57;100738.69;;;-4.38;74.19
77867;BME280;67271;59.120;37.970;2023-11-19T09:34:23;100736.03;;;-4.38;73.94
77867;BME280;67271;59.120;37.970;2023-11-19T09:36:49;100731.63;;;-4.53;73.97
77867;BME280;67271;59.120;37.970;2023-11-19T09:39:15;100731.63;;;-4.53;73.83
77867;BME280;67271;59.120;37.970;2023-11-19T09:41:44;100727.34;;;-4.40;73.92
77867;BME280;67271;59.120;37.970;2023-11-19T09:44:11;100735.16;;;-4.22;73.33
77867;BME280;67271;59.120;37.970;2023-11-19T09:46:38;100732.09;;;-4.31;73.15
77867;BME280;67271;59.120;37.970;2023-11-19T09:49:08;100729.28;;;-4.28;73.05
77867;BME280;67271;59.120;37.970;2023-11-19T09:51:38;100728.19;;;-4.23;73.25
77867;BME280;67271;59.120;37.970;2023-11-19T09:54:04;100732.09;;;-4.31;73.27
77867;BME280;67271;59.120;37.970;2023-11-19T09:56:30;100728.34;;;-4.26;73.18
77867;BME280;67271;59.120;37.970;2023-11-19T09:58:59;100727.41;;;-4.25;73.45
77867;BME280;67271;59.120;37.970;2023-11-19T10:01:25;100717.25;;;-4.17;73.47
77867;BME280;67271;59.120;37.970;2023-11-19T10:03:54;100711.84;;;-4.00;73.28
77867;BME280;67271;59.120;37.970;2023-11-19T10:06:20;100713.41;;;-3.98;73.26
77867;BME280;67271;59.120;37.970;2023-11-19T10:08:47;100712.91;;;-4.18;72.98
77867;BME280;67271;59.120;37.970;2023-11-19T10:11:13;100702.66;;;-4.39;73.31
77867;BME280;67271;59.120;37.970;2023-11-19T10:13:39;100706.66;;;-4.47;73.57
77867;BME280;67271;59.120;37.970;2023-11-19T10:16:09;100700.09;;;-4.56;73.42
77867;BME280;67271;59.120;37.970;2023-11-19T10:18:37;100699.16;;;-4.55;73.55
77867;BME280;67271;59.120;37.970;2023-11-19T10:21:04;100702.09;;;-4.59;73.56
77867;BME280;67271;59.120;37.970;2023-11-19T10:23:46;100702.81;;;-4.57;73.65
77867;BME280;67271;59.120;37.970;2023-11-19T10:26:13;100700.78;;;-4.52;73.39
77867;BME280;67271;59.120;37.970;2023-11-19T10:28:39;100704.88;;;-4.47;73.18
77867;BME280;67271;59.120;37.970;2023-11-19T10:31:06;100697.88;;;-4.48;73.24
77867;BME280;67271;59.120;37.970;2023-11-19T10:33:32;100707.66;;;-4.50;73.43
77867;BME280;67271;59.120;37.970;2023-11-19T10:35:58;100710.31;;;-4.50;73.27
77867;BME280;67271;59.120;37.970;2023-11-19T10:38:25;100704.09;;;-4.49;73.40
77867;BME280;67271;59.120;37.970;2023-11-19T10:40:52;100707.16;;;-4.41;73.39
77867;BME280;67271;59.120;37.970;2023-11-19T10:43:18;100703.50;;;-4.38;73.31
77867;BME280;67271;59.120;37.970;2023-11-19T10:45:45;100694.28;;;-4.31;73.36
77867;BME280;67271;59.120;37.970;2023-11-19T10:48:11;100694.19;;;-4.30;73.36
77867;BME280;67271;59.120;37.970;2023-11-19T10:50:40;100700.16;;;-4.42;73.54
77867;BME280;67271;59.120;37.970;2023-11-19T10:53:08;100704.19;;;-4.50;73.45
77867;BME280;67271;59.120;37.970;2023-11-19T10:55:36;100697.91;;;-4.63;73.86
77867;BME280;67271;59.120;37.970;2023-11-19T10:58:05;100705.25;;;-4.69;73.45
77867;BME280;67271;59.120;37.970;2023-11-19T11:00:57;100704.19;;;-4.66;73.78
77867;BME280;67271;59.120;37.970;2023-11-19T11:03:25;100701.56;;;-4.66;73.78
77867;BME280;67271;59.120;37.970;2023-11-19T11:05:53;100705.31;;;-4.70;73.83
77867;BME280;67271;59.120;37.970;2023-11-19T11:08:20;100696.75;;;-4.74;73.91
77867;BME280;67271;59.120;37.970;2023-11-19T11:10:55;100703.03;;;-4.76;73.60
77867;BME280;67271;59.120;37.970;2023-11-19T11:13:24;100709.31;;;-4.79;74.26
77867;BME280;67271;59.120;37.970;2023-11-19T11:15:50;100712.38;;;-4.86;73.71
77867;BME280;67271;59.120;37.970;2023-11-19T11:18:17;100705.25;;;-4.84;73.79
77867;BME280;67271;59.120;37.970;2023-11-19T11:20:44;100708.31;;;-4.76;73.77
77867;BME280;67271;59.120;37.970;2023-11-19T11:26:06;100707.63;;;-4.80;73.60
77867;BME280;67271;59.120;37.970;2023-11-19T11:28:43;100713.44;;;-4.89;73.99
77867;BME280;67271;59.120;37.970;2023-11-19T11:31:39;100718.16;;;-4.95;74.02
77867;BME280;67271;59.120;37.970;2023-11-19T11:39:34;100707.53;;;-4.94;73.76
77867;BME280;67271;59.120;37.970;2023-11-19T11:45:13;100698.59;;;-4.91;74.13
77867;BME280;67271;59.120;37.970;2023-11-19T11:55:36;100694.19;;;-4.91;74.18
77867;BME280;67271;59.120;37.970;2023-11-19T11:58:03;100686.78;;;-5.00;74.10
77867;BME280;67271;59.120;37.970;2023-11-19T12:00:38;100694.84;;;-5.03;74.42
77867;BME280;67271;59.120;37.970;2023-11-19T12:03:06;100691.53;;;-5.07;74.12
77867;BME280;67271;59.120;37.970;2023-11-19T12:05:42;100693.84;;;-5.00;74.52
77867;BME280;67271;59.120;37.970;2023-11-19T12:08:10;100689.47;;;-5.01;74.29
77867;BME280;67271;59.120;37.970;2023-11-19T12:10:50;100687.78;;;-5.02;74.42
77867;BME280;67271;59.120;37.970;2023-11-19T12:13:18;100691.03;;;-5.13;74.59
77867;BME280;67271;59.120;37.970;2023-11-19T12:18:26;100684.81;;;-5.28;74.39
77867;BME280;67271;59.120;37.970;2023-11-19T12:20:53;100684.09;;;-5.31;74.60
77867;BME280;67271;59.120;37.970;2023-11-19T12:23:19;100685.97;;;-5.33;74.72
77867;BME280;67271;59.120;37.970;2023-11-19T12:25:45;100692.09;;;-5.33;74.62
77867;BME280;67271;59.120;37.970;2023-11-19T12:28:15;100696.00;;;-5.40;74.45
77867;BME280;67271;59.120;37.970;2023-11-19T12:30:45;100688.25;;;-5.43;74.46
77867;BME280;67271;59.120;37.970;2023-11-19T12:33:12;100685.78;;;-5.46;74.65
77867;BME280;67271;59.120;37.970;2023-11-19T12:35:42;100690.53;;;-5.53;74.11
77867;BME280;67271;59.120;37.970;2023-11-19T12:38:18;100688.31;;;-5.60;74.46
77867;BME280;67271;59.120;37.970;2023-11-19T12:40:44;100697.94;;;-5.76;74.57
77867;BME280;67271;59.120;37.970;2023-11-19T12:43:21;100693.34;;;-5.89;74.51
77867;BME280;67271;59.120;37.970;2023-11-19T12:45:46;100702.19;;;-5.90;74.82
77867;BME280;67271;59.120;37.970;2023-11-19T12:48:12;100694.22;;;-5.88;74.73
77867;BME280;67271;59.120;37.970;2023-11-19T12:50:55;100696.72;;;-5.87;74.53
77867;BME280;67271;59.120;37.970;2023-11-19T12:53:26;100681.69;;;-5.85;74.35
77867;BME280;67271;59.120;37.970;2023-11-19T12:55:53;100685.69;;;-5.77;74.66
77867;BME280;67271;59.120;37.970;2023-11-19T12:58:34;100686.31;;;-5.72;74.35
77867;BME280;67271;59.120;37.970;2023-11-19T13:01:05;100678.09;;;-5.66;74.38
77867;BME280;67271;59.120;37.970;2023-11-19T13:03:33;100677.06;;;-5.64;74.49
77867;BME280;67271;59.120;37.970;2023-11-19T13:06:09;100681.31;;;-5.61;74.15